createdAt,value
2023-04-06T00:00:34.960Z,4.20
2023-04-06T00:05:51.387Z,3.80
2023-04-06T00:10:54.562Z,4.00
2023-04-06T00:15:56.524Z,3.60
2023-04-06T00:20:58.553Z,2.80
2023-04-06T00:26:00.890Z,3.30
2023-04-06T00:31:02.832Z,2.90
2023-04-06T00:36:06.591Z,3.30
2023-04-06T00:41:08.590Z,2.30
2023-04-06T00:46:10.769Z,3.00
2023-04-06T00:51:13.257Z,2.30
2023-04-06T00:56:15.365Z,2.70
2023-04-06T01:01:17.375Z,3.40
2023-04-06T01:06:19.306Z,2.80
2023-04-06T01:11:21.348Z,2.00
2023-04-06T01:16:24.903Z,2.70
2023-04-06T01:21:27.399Z,2.70
2023-04-06T01:26:30.082Z,2.70
2023-04-06T01:31:32.044Z,2.40
2023-04-06T01:36:34.057Z,2.80
2023-04-06T01:41:36.210Z,2.40
2023-04-06T01:46:38.165Z,1.70
2023-04-06T01:51:40.700Z,2.20
2023-04-06T01:56:42.650Z,2.60
2023-04-06T02:01:44.958Z,2.00
2023-04-06T02:06:46.960Z,2.40
2023-04-06T02:11:48.938Z,2.20
2023-04-06T02:16:50.960Z,2.50
2023-04-06T02:21:53.033Z,2.60
2023-04-06T02:26:55.281Z,3.20
2023-04-06T02:31:57.257Z,2.70
2023-04-06T02:36:59.398Z,3.10
2023-04-06T02:42:02.161Z,3.00
2023-04-06T02:47:04.099Z,2.20
2023-04-06T02:52:06.361Z,2.50
2023-04-06T02:57:08.628Z,3.20
2023-04-06T03:02:11.393Z,2.60
2023-04-06T03:07:13.362Z,2.60
2023-04-06T03:12:15.496Z,2.70
2023-04-06T03:17:17.404Z,3.60
2023-04-06T03:22:21.367Z,3.90
2023-04-06T03:27:23.306Z,3.80
2023-04-06T03:32:25.293Z,4.70
2023-04-06T03:37:27.257Z,3.60
2023-04-06T03:42:29.920Z,2.50
2023-04-06T03:47:31.884Z,3.10
2023-04-06T03:52:33.822Z,3.30
2023-04-06T03:57:35.781Z,1.50
2023-04-06T04:02:38.176Z,2.90
2023-04-06T04:07:40.524Z,3.00
2023-04-06T04:12:42.547Z,3.50
2023-04-06T04:17:47.694Z,3.70
2023-04-06T04:22:49.849Z,3.10
2023-04-06T04:27:51.771Z,3.30
2023-04-06T04:32:53.900Z,3.10
2023-04-06T04:37:55.901Z,3.50
2023-04-06T04:42:57.885Z,2.50
2023-04-06T04:48:00.338Z,2.60
2023-04-06T04:53:02.607Z,2.60
2023-04-06T04:58:04.664Z,3.00
2023-04-06T05:03:08.255Z,3.40
2023-04-06T05:08:10.411Z,3.90
2023-04-06T05:13:12.474Z,3.30
2023-04-06T05:18:14.416Z,3.50
2023-04-06T05:23:16.340Z,3.40
2023-04-06T05:28:19.283Z,3.10
2023-04-06T05:33:21.482Z,3.10
2023-04-06T05:38:23.492Z,2.80
2023-04-06T05:43:25.458Z,2.40
2023-04-06T05:48:27.394Z,3.00
2023-04-06T05:53:29.805Z,2.90
2023-04-06T05:58:31.769Z,2.50
2023-04-06T06:03:33.821Z,1.80
2023-04-06T06:08:35.766Z,3.50
2023-04-06T06:13:37.743Z,3.60
2023-04-06T06:18:40.543Z,3.10
2023-04-06T06:23:43.651Z,2.40
2023-04-06T06:28:45.948Z,2.30
2023-04-06T06:33:50.905Z,2.20
2023-04-06T06:38:55.046Z,2.00
2023-04-06T06:43:56.974Z,2.00
2023-04-06T06:48:59.812Z,1.90
2023-04-06T06:54:01.915Z,1.80
2023-04-06T06:59:04.082Z,1.90
2023-04-06T07:04:06.268Z,1.70
2023-04-06T07:09:08.428Z,1.70
2023-04-06T07:14:10.594Z,1.70
2023-04-06T07:19:13.303Z,1.80
2023-04-06T07:24:15.509Z,1.40
2023-04-06T07:29:19.442Z,1.40
2023-04-06T07:34:22.365Z,1.80
2023-04-06T07:39:24.328Z,1.40
2023-04-06T07:44:26.404Z,1.60
2023-04-06T07:49:28.392Z,0.80
2023-04-06T07:54:30.396Z,1.30
2023-04-06T07:59:32.498Z,1.50
2023-04-06T08:04:34.724Z,1.90
2023-04-06T08:09:36.928Z,1.40
2023-04-06T08:14:39.018Z,1.60
2023-04-06T08:19:47.165Z,1.40
2023-04-06T08:24:49.199Z,1.30
2023-04-06T08:29:52.082Z,1.90
2023-04-06T08:34:55.742Z,1.20
2023-04-06T08:39:58.357Z,1.70
2023-04-06T08:45:01.352Z,2.10
2023-04-06T08:50:09.082Z,2.00
2023-04-06T08:55:11.123Z,1.30
2023-04-06T09:00:15.281Z,1.30
2023-04-06T09:05:18.101Z,2.30
2023-04-06T09:10:21.341Z,2.20
2023-04-06T09:15:24.969Z,2.00
2023-04-06T09:20:29.013Z,2.70
2023-04-06T09:25:32.439Z,2.40
2023-04-06T09:30:36.570Z,2.10
2023-04-06T09:35:38.713Z,2.30
2023-04-06T09:41:00.923Z,1.70
2023-04-06T09:46:05.250Z,1.40
2023-04-06T09:51:10.913Z,1.50
2023-04-06T09:56:18.577Z,1.50
2023-04-06T10:01:21.641Z,2.00
2023-04-06T10:06:27.817Z,1.80
2023-04-06T10:11:30.248Z,1.50
2023-04-06T10:16:33.241Z,1.70
2023-04-06T10:21:38.488Z,1.40
2023-04-06T10:26:43.635Z,1.20
2023-04-06T10:31:45.963Z,1.20
2023-04-06T10:36:48.052Z,0.90
2023-04-06T10:41:50.068Z,1.80
2023-04-06T10:47:02.488Z,1.10
2023-04-06T10:52:06.841Z,1.50
2023-04-06T10:57:09.083Z,1.00
2023-04-06T11:02:21.587Z,1.10
2023-04-06T11:07:30.992Z,1.00
2023-04-06T11:12:32.962Z,1.30
2023-04-06T11:17:36.972Z,1.10
2023-04-06T11:22:52.348Z,1.40
2023-04-06T11:27:56.110Z,1.30
2023-04-06T11:33:03.068Z,1.60
2023-04-06T11:38:05.217Z,2.20
2023-04-06T11:43:12.562Z,1.40
2023-04-06T11:48:21.392Z,1.60
2023-04-06T11:53:23.958Z,2.00
2023-04-06T11:58:27.318Z,1.80
2023-04-06T12:03:29.350Z,1.20
2023-04-06T12:08:31.452Z,1.60
2023-04-06T12:13:33.582Z,1.70
2023-04-06T12:18:35.676Z,2.00
2023-04-06T12:23:37.669Z,1.30
2023-04-06T12:28:39.902Z,1.50
2023-04-06T12:33:42.271Z,1.90
2023-04-06T12:38:46.399Z,1.80
2023-04-06T12:43:53.158Z,1.80
2023-04-06T12:48:55.780Z,1.30
2023-04-06T12:53:58.066Z,2.00
2023-04-06T12:59:02.423Z,1.70
2023-04-06T13:04:04.578Z,1.80
2023-04-06T13:09:08.515Z,1.90
2023-04-06T13:14:10.599Z,2.60
2023-04-06T13:19:12.797Z,2.20
2023-04-06T13:24:16.593Z,2.10
2023-04-06T13:29:20.274Z,2.20
2023-04-06T13:34:22.424Z,2.80
2023-04-06T13:39:24.557Z,2.20
2023-04-06T13:44:26.896Z,3.20
2023-04-06T13:49:28.989Z,2.70
2023-04-06T13:54:30.926Z,2.40
2023-04-06T13:59:35.368Z,3.80
2023-04-06T14:04:37.564Z,2.60
2023-04-06T14:09:39.514Z,3.80
2023-04-06T14:14:41.530Z,3.70
2023-04-06T14:19:44.155Z,2.90
2023-04-06T14:24:47.488Z,2.40
2023-04-06T14:29:49.438Z,1.90
2023-04-06T14:34:51.391Z,2.90
2023-04-06T14:39:53.706Z,2.30
2023-04-06T14:44:55.771Z,2.70
2023-04-06T14:49:58.239Z,2.60
2023-04-06T14:55:00.475Z,3.30
2023-04-06T15:00:03.851Z,3.60
2023-04-06T15:05:06.557Z,3.70
2023-04-06T15:10:12.010Z,3.20
2023-04-06T15:15:15.000Z,2.10
2023-04-06T15:20:17.043Z,3.30
2023-04-06T15:25:19.076Z,3.20
2023-04-06T15:30:22.167Z,2.90
2023-04-06T15:35:26.159Z,2.90
2023-04-06T15:40:28.236Z,2.00
2023-04-06T15:45:30.302Z,2.30
2023-04-06T15:50:33.970Z,2.40
2023-04-06T15:55:35.981Z,1.60
2023-04-06T16:00:40.841Z,1.80
2023-04-06T16:05:48.949Z,3.60
2023-04-06T16:11:01.968Z,2.30
2023-04-06T16:16:05.863Z,3.20
2023-04-06T16:21:08.308Z,2.10
2023-04-06T16:26:21.255Z,1.70
2023-04-06T16:31:25.429Z,1.80
2023-04-06T16:36:31.238Z,1.60
2023-04-06T16:41:33.262Z,1.60
2023-04-06T16:46:37.956Z,2.00
2023-04-06T16:51:41.653Z,1.70
2023-04-06T16:56:43.778Z,2.00
2023-04-06T17:01:46.553Z,2.00
2023-04-06T17:06:49.891Z,2.20
2023-04-06T17:11:56.113Z,2.50
2023-04-06T17:16:58.407Z,2.20
2023-04-06T17:22:01.274Z,1.60
2023-04-06T17:27:03.495Z,2.60
2023-04-06T17:32:05.632Z,1.80
2023-04-06T17:37:08.180Z,2.70
2023-04-06T17:42:10.095Z,2.30
2023-04-06T17:47:12.132Z,2.00
2023-04-06T17:52:14.177Z,1.80
2023-04-06T17:57:16.200Z,2.10
2023-04-06T18:02:20.265Z,2.50
2023-04-06T18:07:22.600Z,2.90
2023-04-06T18:12:24.620Z,2.80
2023-04-06T18:17:26.845Z,1.80
2023-04-06T18:22:31.809Z,2.40
2023-04-06T18:27:34.952Z,2.50
2023-04-06T18:32:36.927Z,3.40
2023-04-06T18:37:38.851Z,3.20
2023-04-06T18:42:40.713Z,2.90
2023-04-06T18:47:42.704Z,3.40
2023-04-06T18:52:44.796Z,3.30
2023-04-06T18:57:47.160Z,3.80
2023-04-06T19:02:49.370Z,2.90
2023-04-06T19:07:51.931Z,4.80
2023-04-06T19:12:54.274Z,3.80
2023-04-06T19:17:56.812Z,4.20
2023-04-06T19:23:00.363Z,4.80
2023-04-06T19:28:02.732Z,3.20
2023-04-06T19:33:05.690Z,6.10
2023-04-06T19:38:08.014Z,6.50
2023-04-06T19:43:10.084Z,5.30
2023-04-06T19:48:13.055Z,4.30
2023-04-06T19:53:15.106Z,5.00
2023-04-06T19:58:18.321Z,5.70
2023-04-06T20:03:20.625Z,7.00
2023-04-06T20:08:22.759Z,7.40
2023-04-06T20:13:24.916Z,7.40
2023-04-06T20:18:27.110Z,8.00
2023-04-06T20:23:29.333Z,10.60
2023-04-06T20:28:32.320Z,8.90
2023-04-06T20:33:35.001Z,7.20
2023-04-06T20:38:37.129Z,4.10
2023-04-06T20:43:39.195Z,4.10
2023-04-06T20:48:41.563Z,5.10
2023-04-06T20:53:43.888Z,3.70
2023-04-06T20:58:45.897Z,5.90
2023-04-06T21:03:48.443Z,6.10
2023-04-06T21:08:50.650Z,6.60
2023-04-06T21:13:53.002Z,4.60
2023-04-06T21:18:54.978Z,7.10
2023-04-06T21:23:58.019Z,5.90
2023-04-06T21:29:00.755Z,8.30
2023-04-06T21:34:02.731Z,6.60
2023-04-06T21:39:05.072Z,6.80
2023-04-06T21:44:07.324Z,7.20
2023-04-06T21:49:09.997Z,7.30
2023-04-06T21:54:13.919Z,6.50
2023-04-06T21:59:16.122Z,6.80
2023-04-06T22:04:18.543Z,7.60
2023-04-06T22:09:21.542Z,6.80
2023-04-06T22:14:23.521Z,6.90
2023-04-06T22:19:25.404Z,8.40
2023-04-06T22:24:27.490Z,8.10
2023-04-06T22:29:29.402Z,3.90
2023-04-06T22:34:31.285Z,7.40
2023-04-06T22:39:33.232Z,7.50
2023-04-06T22:44:35.789Z,8.10
2023-04-06T22:49:37.719Z,7.50
2023-04-06T22:54:39.944Z,4.50
2023-04-06T22:59:42.163Z,8.10
2023-04-06T23:04:45.813Z,7.80
2023-04-06T23:09:48.489Z,6.40
2023-04-06T23:14:50.470Z,6.90
2023-04-06T23:19:52.477Z,7.10
2023-04-06T23:24:54.464Z,5.70
2023-04-06T23:29:56.391Z,7.00
2023-04-06T23:34:58.327Z,6.90
2023-04-06T23:40:01.620Z,8.90
2023-04-06T23:45:07.247Z,8.50
2023-04-06T23:50:09.355Z,7.10
2023-04-06T23:55:11.314Z,8.70
